createdAt,value
2017-10-22T00:00:45.006Z,100355.13
2017-10-22T00:03:13.565Z,100355.00
2017-10-22T00:05:40.553Z,100353.08
2017-10-22T00:08:13.311Z,100355.78
2017-10-22T00:10:41.740Z,100352.47
2017-10-22T00:13:13.878Z,100352.13
2017-10-22T00:15:46.450Z,100355.50
2017-10-22T00:18:13.347Z,100348.33
2017-10-22T00:20:40.631Z,100346.11
2017-10-22T00:23:14.196Z,100343.34
2017-10-22T00:25:42.349Z,100341.00
2017-10-22T00:28:11.437Z,100342.33
2017-10-22T00:30:38.430Z,100347.00
2017-10-22T00:33:07.742Z,100342.00
2017-10-22T00:35:34.788Z,100335.16
2017-10-22T00:38:02.898Z,100335.70
2017-10-22T00:40:30.600Z,100333.05
2017-10-22T00:42:58.361Z,100332.09
2017-10-22T00:45:25.375Z,100336.95
2017-10-22T00:47:52.249Z,100338.22
2017-10-22T00:50:19.560Z,100338.97
2017-10-22T00:52:46.615Z,100337.47
2017-10-22T00:55:13.511Z,100336.62
2017-10-22T00:57:40.785Z,100333.64
2017-10-22T01:00:08.265Z,100326.84
2017-10-22T01:02:35.268Z,100327.80
2017-10-22T01:05:07.328Z,100320.02
2017-10-22T01:07:34.768Z,100317.81
2017-10-22T01:10:06.860Z,100315.06
2017-10-22T01:12:40.054Z,100320.97
2017-10-22T01:15:12.542Z,100313.73
2017-10-22T01:17:44.769Z,100309.80
2017-10-22T01:20:11.678Z,100303.42
2017-10-22T01:22:39.542Z,100301.05
2017-10-22T01:25:12.755Z,100301.09
2017-10-22T01:27:40.540Z,100291.90
2017-10-22T01:30:12.939Z,100293.15
2017-10-22T01:32:44.968Z,100287.78
2017-10-22T01:35:11.915Z,100275.84
2017-10-22T01:37:44.624Z,100284.63
2017-10-22T01:40:14.805Z,100286.34
2017-10-22T01:42:42.036Z,100285.56
2017-10-22T01:45:12.110Z,100280.73
2017-10-22T01:47:39.976Z,100281.52
2017-10-22T01:50:13.523Z,100281.37
2017-10-22T01:52:42.445Z,100284.30
2017-10-22T01:55:09.492Z,100279.83
2017-10-22T01:57:41.857Z,100278.08
2017-10-22T02:00:08.867Z,100275.19
2017-10-22T02:02:37.003Z,100274.16
2017-10-22T02:05:04.256Z,100274.53
2017-10-22T02:07:32.308Z,100277.18
2017-10-22T02:09:59.265Z,100273.23
2017-10-22T02:12:31.621Z,100280.16
2017-10-22T02:14:58.587Z,100280.16
2017-10-22T02:17:25.604Z,100275.33
2017-10-22T02:19:58.236Z,100281.37
2017-10-22T02:22:25.747Z,100280.02
2017-10-22T02:24:53.709Z,100276.58
2017-10-22T02:27:25.875Z,100276.00
2017-10-22T02:29:56.628Z,100269.28
2017-10-22T02:32:24.584Z,100266.44
2017-10-22T02:34:52.294Z,100271.67
2017-10-22T02:37:20.205Z,100264.77
2017-10-22T02:39:48.839Z,100256.25
2017-10-22T02:42:16.718Z,100238.89
2017-10-22T02:44:43.611Z,100240.36
2017-10-22T02:47:11.383Z,100238.93
2017-10-22T02:49:39.108Z,100236.45
2017-10-22T02:52:06.072Z,100234.92
2017-10-22T02:54:38.306Z,100235.17
2017-10-22T02:57:05.836Z,100245.60
2017-10-22T02:59:33.237Z,100238.89
2017-10-22T03:02:01.177Z,100238.56
2017-10-22T03:04:28.666Z,100237.95
2017-10-22T03:06:55.695Z,100239.85
2017-10-22T03:09:22.933Z,100236.59
2017-10-22T03:11:50.679Z,100229.58
2017-10-22T03:14:17.783Z,100229.12
2017-10-22T03:16:45.805Z,100226.54
2017-10-22T03:19:13.672Z,100224.59
2017-10-22T03:21:45.959Z,100222.70
2017-10-22T03:24:12.958Z,100224.88
2017-10-22T03:26:43.809Z,100232.04
2017-10-22T03:29:10.831Z,100222.44
2017-10-22T03:31:41.426Z,100219.48
2017-10-22T03:34:13.742Z,100218.80
2017-10-22T03:36:45.884Z,100212.34
2017-10-22T03:39:18.324Z,100219.69
2017-10-22T03:41:48.133Z,100221.92
2017-10-22T03:44:16.591Z,100223.00
2017-10-22T03:46:46.602Z,100218.17
2017-10-22T03:49:19.659Z,100219.77
2017-10-22T03:51:49.691Z,100210.56
2017-10-22T03:54:22.671Z,100219.41
2017-10-22T03:56:55.112Z,100213.47
2017-10-22T03:59:22.060Z,100213.89
2017-10-22T04:01:48.968Z,100215.62
2017-10-22T04:04:15.929Z,100214.99
2017-10-22T04:06:43.568Z,100223.40
2017-10-22T04:09:15.628Z,100221.12
2017-10-22T04:11:43.497Z,100224.53
2017-10-22T04:14:11.101Z,100224.58
2017-10-22T04:16:40.018Z,100219.98
2017-10-22T04:19:12.850Z,100218.02
2017-10-22T04:21:45.939Z,100216.63
2017-10-22T04:24:13.741Z,100222.00
2017-10-22T04:26:42.056Z,100225.48
2017-10-22T04:29:09.159Z,100223.75
2017-10-22T04:31:39.034Z,100228.16
2017-10-22T04:34:12.300Z,100236.84
2017-10-22T04:36:39.232Z,100235.93
2017-10-22T04:39:06.358Z,100242.97
2017-10-22T04:41:34.363Z,100249.84
2017-10-22T04:44:01.471Z,100237.46
2017-10-22T04:46:28.447Z,100250.45
2017-10-22T04:49:00.448Z,100255.30
2017-10-22T04:51:28.201Z,100256.06
2017-10-22T04:53:55.218Z,100252.67
2017-10-22T04:56:23.087Z,100256.05
2017-10-22T04:58:50.861Z,100242.18
2017-10-22T05:01:18.508Z,100249.19
2017-10-22T05:03:45.367Z,100233.25
2017-10-22T05:06:13.181Z,100221.84
2017-10-22T05:08:40.195Z,100225.77
2017-10-22T05:11:12.431Z,100216.78
2017-10-22T05:13:44.928Z,100209.66
2017-10-22T05:16:15.986Z,100210.97
2017-10-22T05:18:43.970Z,100204.36
2017-10-22T05:21:12.593Z,100202.92
2017-10-22T05:23:39.437Z,100198.95
2017-10-22T05:26:07.008Z,100198.33
2017-10-22T05:28:34.664Z,100188.53
2017-10-22T05:31:06.779Z,100183.09
2017-10-22T05:33:33.813Z,100186.67
2017-10-22T05:36:07.071Z,100178.11
2017-10-22T05:38:39.864Z,100178.95
2017-10-22T05:41:06.795Z,100171.09
2017-10-22T05:43:34.672Z,100172.59
2017-10-22T05:46:05.534Z,100179.72
2017-10-22T05:48:32.864Z,100186.37
2017-10-22T05:50:59.848Z,100191.72
2017-10-22T05:53:27.566Z,100182.69
2017-10-22T05:55:55.251Z,100183.89
2017-10-22T05:58:23.136Z,100190.54
2017-10-22T06:00:57.334Z,100193.60
2017-10-22T06:03:24.268Z,100183.55
2017-10-22T06:05:53.076Z,100198.09
2017-10-22T06:08:21.327Z,100193.47
2017-10-22T06:10:49.061Z,100208.58
2017-10-22T06:13:16.173Z,100198.74
2017-10-22T06:15:44.634Z,100200.31
2017-10-22T06:18:11.573Z,100212.77
2017-10-22T06:20:39.240Z,100202.64
2017-10-22T06:23:14.546Z,100205.45
2017-10-22T06:25:43.453Z,100213.39
2017-10-22T06:28:10.397Z,100216.53
2017-10-22T06:30:38.336Z,100217.17
2017-10-22T06:33:05.507Z,100220.16
2017-10-22T06:35:32.885Z,100216.91
2017-10-22T06:38:00.165Z,100227.03
2017-10-22T06:40:33.563Z,100228.70
2017-10-22T06:43:00.876Z,100220.70
2017-10-22T06:45:33.493Z,100223.92
2017-10-22T06:48:05.688Z,100227.18
2017-10-22T06:50:39.471Z,100236.92
2017-10-22T06:53:06.537Z,100237.93
2017-10-22T06:55:38.690Z,100236.98
2017-10-22T06:58:06.382Z,100228.58
2017-10-22T07:00:33.855Z,100238.36
2017-10-22T07:03:01.115Z,100244.31
2017-10-22T07:05:29.035Z,100248.58
2017-10-22T07:07:56.962Z,100243.15
2017-10-22T07:10:29.264Z,100252.88
2017-10-22T07:12:56.211Z,100245.02
2017-10-22T07:15:23.885Z,100255.41
2017-10-22T07:17:53.126Z,100247.84
2017-10-22T07:20:20.079Z,100254.43
2017-10-22T07:22:47.478Z,100254.18
2017-10-22T07:25:18.191Z,100254.23
2017-10-22T07:27:48.588Z,100265.53
2017-10-22T07:30:15.984Z,100258.76
2017-10-22T07:32:43.370Z,100261.66
2017-10-22T07:35:15.555Z,100261.49
2017-10-22T07:37:48.054Z,100261.45
2017-10-22T07:40:20.333Z,100268.48
2017-10-22T07:42:47.706Z,100282.29
2017-10-22T07:45:15.712Z,100267.94
2017-10-22T07:47:42.961Z,100279.07
2017-10-22T07:50:10.154Z,100270.53
2017-10-22T07:52:37.140Z,100271.08
2017-10-22T07:55:05.419Z,100284.06
2017-10-22T07:57:32.656Z,100279.48
2017-10-22T07:59:59.996Z,100281.48
2017-10-22T08:02:32.447Z,100279.97
2017-10-22T08:05:02.148Z,100284.16
2017-10-22T08:07:32.149Z,100289.30
2017-10-22T08:10:02.778Z,100284.11
2017-10-22T08:12:37.616Z,100282.13
2017-10-22T08:15:05.485Z,100286.26
2017-10-22T08:17:32.957Z,100287.70
2017-10-22T08:20:00.348Z,100289.49
2017-10-22T08:22:27.333Z,100289.95
2017-10-22T08:24:54.826Z,100291.02
2017-10-22T08:27:23.318Z,100282.67
2017-10-22T08:29:54.508Z,100299.63
2017-10-22T08:32:28.050Z,100297.07
2017-10-22T08:34:57.520Z,100298.00
2017-10-22T08:37:26.350Z,100288.73
2017-10-22T08:39:54.201Z,100294.77
2017-10-22T08:42:21.280Z,100292.60
2017-10-22T08:44:49.718Z,100294.56
2017-10-22T08:47:21.894Z,100292.83
2017-10-22T08:49:54.988Z,100291.77
2017-10-22T08:52:28.208Z,100291.58
2017-10-22T08:54:55.213Z,100293.88
2017-10-22T08:57:25.969Z,100292.55
2017-10-22T08:59:53.871Z,100298.02
2017-10-22T09:02:21.675Z,100294.70
2017-10-22T09:04:53.774Z,100300.25
2017-10-22T09:07:20.963Z,100305.30
2017-10-22T09:09:48.154Z,100300.77
2017-10-22T09:12:21.017Z,100299.12
2017-10-22T09:14:55.063Z,100305.02
2017-10-22T09:17:27.370Z,100305.77
2017-10-22T09:19:59.637Z,100310.52
2017-10-22T09:22:26.604Z,100311.13
2017-10-22T09:24:53.848Z,100308.55
2017-10-22T09:27:26.762Z,100312.45
2017-10-22T09:29:54.124Z,100312.02
2017-10-22T09:32:21.142Z,100319.47
2017-10-22T09:34:55.262Z,100325.17
2017-10-22T09:37:23.042Z,100318.56
2017-10-22T09:39:50.591Z,100319.63
2017-10-22T09:42:23.606Z,100311.16
2017-10-22T09:44:51.078Z,100315.73
2017-10-22T09:47:18.541Z,100319.80
2017-10-22T09:49:47.223Z,100318.37
2017-10-22T09:52:14.494Z,100315.51
2017-10-22T09:54:46.588Z,100323.73
2017-10-22T09:57:13.641Z,100323.20
2017-10-22T09:59:40.629Z,100309.77
2017-10-22T10:02:07.580Z,100324.18
2017-10-22T10:04:34.790Z,100319.55
2017-10-22T10:07:01.903Z,100318.76
2017-10-22T10:09:30.266Z,100319.92
2017-10-22T10:11:57.291Z,100317.83
2017-10-22T10:14:24.435Z,100319.80
2017-10-22T10:16:51.671Z,100322.91
2017-10-22T10:19:18.948Z,100320.86
2017-10-22T10:21:51.027Z,100318.62
2017-10-22T10:24:18.196Z,100323.77
2017-10-22T10:26:45.059Z,100314.22
2017-10-22T10:29:12.980Z,100324.44
2017-10-22T10:31:40.579Z,100321.61
2017-10-22T10:34:12.795Z,100326.23
2017-10-22T10:36:41.740Z,100332.95
2017-10-22T10:39:11.631Z,100332.37
2017-10-22T10:41:44.321Z,100323.52
2017-10-22T10:44:11.645Z,100321.27
2017-10-22T10:46:38.751Z,100334.73
2017-10-22T10:49:06.716Z,100331.92
2017-10-22T10:51:39.045Z,100330.75
2017-10-22T10:54:06.294Z,100334.28
2017-10-22T10:56:33.495Z,100334.97
2017-10-22T10:59:01.196Z,100343.42
2017-10-22T11:01:28.079Z,100336.22
2017-10-22T11:03:55.250Z,100337.92
2017-10-22T11:06:28.368Z,100338.89
2017-10-22T11:08:55.866Z,100333.30
2017-10-22T11:11:23.874Z,100336.73
2017-10-22T11:13:51.788Z,100336.55
2017-10-22T11:16:18.707Z,100339.78
2017-10-22T11:18:45.766Z,100331.63
2017-10-22T11:21:18.364Z,100337.62
2017-10-22T11:23:46.388Z,100341.17
2017-10-22T11:26:13.344Z,100340.05
2017-10-22T11:28:41.289Z,100338.63
2017-10-22T11:31:08.303Z,100340.16
2017-10-22T11:36:40.631Z,100346.14
2017-10-22T11:39:07.936Z,100348.42
2017-10-22T11:41:35.863Z,100359.14
2017-10-22T11:44:03.606Z,100352.41
2017-10-22T11:46:30.466Z,100353.42
2017-10-22T11:48:57.660Z,100351.20
2017-10-22T11:51:26.489Z,100353.91
2017-10-22T11:53:53.651Z,100350.06
2017-10-22T11:56:21.559Z,100357.16
2017-10-22T11:58:49.636Z,100353.25
2017-10-22T12:01:23.840Z,100359.95
2017-10-22T12:03:51.890Z,100353.09
2017-10-22T12:06:20.018Z,100351.86
2017-10-22T12:08:49.121Z,100356.09
2017-10-22T12:11:18.053Z,100348.69
2017-10-22T12:13:45.946Z,100349.00
2017-10-22T12:16:20.779Z,100352.44
2017-10-22T12:18:47.767Z,100341.61
2017-10-22T12:21:19.014Z,100342.03
2017-10-22T12:23:51.643Z,100351.02
2017-10-22T12:26:20.038Z,100347.41
2017-10-22T12:28:47.039Z,100348.41
2017-10-22T12:31:14.508Z,100352.56
2017-10-22T12:33:47.043Z,100357.92
2017-10-22T12:36:14.482Z,100350.62
2017-10-22T12:38:41.804Z,100358.29
2017-10-22T12:41:09.839Z,100359.05
2017-10-22T12:43:36.795Z,100357.08
2017-10-22T12:46:03.724Z,100366.48
2017-10-22T12:48:31.871Z,100359.56
2017-10-22T12:51:04.667Z,100365.02
2017-10-22T12:53:36.954Z,100365.48
2017-10-22T12:56:09.893Z,100364.72
2017-10-22T12:58:37.309Z,100366.66
2017-10-22T13:01:04.438Z,100375.17
2017-10-22T13:03:31.717Z,100381.86
2017-10-22T13:05:59.574Z,100366.02
2017-10-22T13:08:33.578Z,100375.44
2017-10-22T13:11:11.743Z,100376.48
2017-10-22T13:13:44.168Z,100382.62
2017-10-22T13:16:11.462Z,100385.92
2017-10-22T13:18:40.254Z,100387.00
2017-10-22T13:21:10.664Z,100389.77
2017-10-22T13:23:42.897Z,100385.68
2017-10-22T13:26:11.038Z,100393.23
2017-10-22T13:28:43.700Z,100390.56
2017-10-22T13:31:16.373Z,100394.34
2017-10-22T13:33:45.032Z,100393.64
2017-10-22T13:36:17.889Z,100395.67
2017-10-22T13:38:47.126Z,100402.59
2017-10-22T13:41:15.054Z,100406.20
2017-10-22T13:43:47.595Z,100409.59
2017-10-22T13:46:14.534Z,100407.73
2017-10-22T13:48:46.315Z,100402.23
2017-10-22T13:51:14.206Z,100403.39
2017-10-22T13:53:47.678Z,100400.23
2017-10-22T13:56:17.007Z,100397.02
2017-10-22T13:58:49.228Z,100405.61
2017-10-22T14:01:17.205Z,100409.75
2017-10-22T14:03:48.017Z,100405.70
2017-10-22T14:06:21.590Z,100415.81
2017-10-22T14:08:58.519Z,100411.78
2017-10-22T14:11:26.584Z,100418.72
2017-10-22T14:13:53.693Z,100430.47
2017-10-22T14:16:21.057Z,100427.13
2017-10-22T14:18:47.990Z,100436.73
2017-10-22T14:21:15.443Z,100436.81
2017-10-22T14:23:42.429Z,100435.11
2017-10-22T14:26:09.797Z,100438.94
2017-10-22T14:28:36.867Z,100442.69
2017-10-22T14:31:09.720Z,100441.16
2017-10-22T14:33:39.570Z,100443.63
2017-10-22T14:36:12.073Z,100440.89
2017-10-22T14:38:39.968Z,100449.02
2017-10-22T14:41:07.017Z,100445.46
2017-10-22T14:43:36.459Z,100440.08
2017-10-22T14:46:04.705Z,100444.71
2017-10-22T14:48:39.018Z,100443.95
2017-10-22T15:04:04.872Z,100452.71
2017-10-22T15:06:31.760Z,100456.16
2017-10-22T15:08:58.587Z,100457.55
2017-10-22T15:11:25.883Z,100457.63
2017-10-22T15:13:52.847Z,100463.23
2017-10-22T15:16:19.860Z,100464.47
2017-10-22T15:18:46.700Z,100466.09
2017-10-22T15:21:13.540Z,100464.86
2017-10-22T15:23:40.409Z,100472.41
2017-10-22T15:26:07.396Z,100470.06
2017-10-22T15:28:35.422Z,100473.97
2017-10-22T15:31:02.292Z,100482.51
2017-10-22T15:33:29.182Z,100484.48
2017-10-22T15:35:56.119Z,100481.25
2017-10-22T15:38:23.012Z,100490.34
2017-10-22T15:40:49.902Z,100483.77
2017-10-22T15:43:16.780Z,100492.24
2017-10-22T15:45:43.715Z,100490.30
2017-10-22T15:48:11.335Z,100493.79
2017-10-22T15:50:38.194Z,100497.27
2017-10-22T15:53:05.124Z,100504.42
2017-10-22T15:55:32.744Z,100506.47
2017-10-22T15:57:59.624Z,100511.01
2017-10-22T16:00:26.486Z,100516.97
2017-10-22T16:02:53.385Z,100510.48
2017-10-22T16:05:20.961Z,100513.12
2017-10-22T16:07:48.545Z,100517.63
2017-10-22T16:10:16.131Z,100528.38
2017-10-22T16:12:42.987Z,100528.55
2017-10-22T16:15:10.590Z,100535.63
2017-10-22T16:17:37.437Z,100534.23
2017-10-22T16:20:04.307Z,100544.16
2017-10-22T16:22:31.152Z,100540.74
2017-10-22T16:24:58.725Z,100553.49
2017-10-22T16:27:26.380Z,100550.31
2017-10-22T16:29:53.393Z,100547.67
2017-10-22T16:32:20.274Z,100551.63
2017-10-22T16:34:47.153Z,100557.48
2017-10-22T16:37:14.069Z,100559.59
2017-10-22T16:39:40.897Z,100551.84
2017-10-22T16:42:07.829Z,100557.53
2017-10-22T16:44:34.656Z,100563.32
2017-10-22T16:47:01.499Z,100559.80
2017-10-22T16:49:29.073Z,100572.53
2017-10-22T16:51:56.705Z,100565.33
2017-10-22T16:54:23.559Z,100568.64
2017-10-22T16:56:50.418Z,100567.77
2017-10-22T16:59:17.376Z,100570.90
2017-10-22T17:01:44.490Z,100570.01
2017-10-22T17:04:12.332Z,100575.95
2017-10-22T17:06:39.181Z,100575.51
2017-10-22T17:09:06.869Z,100580.45
2017-10-22T17:11:33.737Z,100587.61
2017-10-22T17:14:00.614Z,100587.48
2017-10-22T17:16:27.461Z,100584.27
2017-10-22T17:18:54.331Z,100590.66
2017-10-22T17:21:21.180Z,100591.69
2017-10-22T17:23:48.041Z,100590.99
2017-10-22T17:26:15.013Z,100589.62
2017-10-22T17:28:41.860Z,100593.19
2017-10-22T17:31:08.951Z,100597.20
2017-10-22T17:33:37.193Z,100592.91
2017-10-22T17:36:04.888Z,100600.21
2017-10-22T17:38:31.728Z,100602.51
2017-10-22T17:40:59.425Z,100604.58
2017-10-22T17:43:26.302Z,100604.52
2017-10-22T17:45:53.933Z,100613.81
2017-10-22T17:48:21.591Z,100610.11
2017-10-22T17:50:48.421Z,100627.14
2017-10-22T17:53:15.265Z,100622.34
2017-10-22T17:55:42.121Z,100634.16
2017-10-22T17:58:09.700Z,100627.72
2017-10-22T18:00:37.008Z,100634.46
2017-10-22T18:03:08.977Z,100633.04
2017-10-22T18:05:35.944Z,100639.78
2017-10-22T18:08:02.877Z,100631.81
2017-10-22T18:10:30.545Z,100638.89
2017-10-22T18:12:57.530Z,100633.84
2017-10-22T18:15:24.370Z,100638.53
2017-10-22T18:17:52.029Z,100643.56
2017-10-22T18:20:19.645Z,100654.64
2017-10-22T18:22:46.519Z,100653.89
2017-10-22T18:25:13.432Z,100649.98
2017-10-22T18:27:40.524Z,100650.89
2017-10-22T18:30:08.210Z,100651.30
2017-10-22T18:32:35.637Z,100654.36
2017-10-22T18:35:02.834Z,100656.05
2017-10-22T18:37:31.041Z,100665.20
2017-10-22T18:39:58.350Z,100658.14
2017-10-22T18:42:25.899Z,100662.94
2017-10-22T18:44:54.383Z,100664.14
2017-10-22T18:47:23.255Z,100664.45
2017-10-22T18:49:51.905Z,100659.05
2017-10-22T18:52:19.860Z,100663.30
2017-10-22T18:54:48.552Z,100667.00
2017-10-22T18:57:16.760Z,100667.81
2017-10-22T18:59:45.458Z,100666.45
2017-10-22T19:02:14.019Z,100665.36
2017-10-22T19:04:47.956Z,100665.72
2017-10-22T19:07:17.447Z,100667.33
2017-10-22T19:09:45.596Z,100665.18
2017-10-22T19:12:20.474Z,100666.98
2017-10-22T19:14:49.588Z,100668.95
2017-10-22T19:17:26.116Z,100672.50
2017-10-22T19:19:55.256Z,100669.21
2017-10-22T19:22:25.242Z,100674.92
2017-10-22T19:24:55.537Z,100678.39
2017-10-22T19:27:30.565Z,100677.14
2017-10-22T19:29:59.192Z,100675.95
2017-10-22T19:32:29.672Z,100683.77
2017-10-22T19:35:03.170Z,100686.42
2017-10-22T19:37:31.912Z,100679.08
2017-10-22T19:40:02.089Z,100690.84
2017-10-22T19:42:36.182Z,100687.26
2017-10-22T19:45:06.198Z,100687.39
2017-10-22T19:47:34.018Z,100687.67
2017-10-22T19:50:03.184Z,100690.02
2017-10-22T19:52:32.392Z,100693.98
2017-10-22T19:55:00.248Z,100688.42
2017-10-22T19:57:34.824Z,100687.55
2017-10-22T20:00:03.086Z,100692.98
2017-10-22T20:02:39.197Z,100694.05
2017-10-22T20:05:14.666Z,100700.50
2017-10-22T20:07:44.464Z,100702.48
2017-10-22T20:10:11.846Z,100701.21
2017-10-22T20:12:41.171Z,100709.00
2017-10-22T20:15:15.032Z,100709.23
2017-10-22T20:17:43.405Z,100709.34
2017-10-22T20:20:12.013Z,100710.27
2017-10-22T20:22:40.466Z,100716.38
2017-10-22T20:25:07.932Z,100719.25
2017-10-22T20:27:41.596Z,100716.27
2017-10-22T20:30:08.676Z,100717.95
2017-10-22T20:32:41.603Z,100716.32
2017-10-22T20:35:09.528Z,100720.17
2017-10-22T20:37:37.612Z,100722.76
2017-10-22T20:40:05.895Z,100718.78
2017-10-22T20:42:33.205Z,100716.80
2017-10-22T20:45:00.177Z,100719.03
2017-10-22T20:47:27.173Z,100719.59
2017-10-22T20:49:55.257Z,100718.59
2017-10-22T20:52:33.293Z,100714.30
2017-10-22T20:55:01.073Z,100716.39
2017-10-22T20:57:28.724Z,100724.91
2017-10-22T20:59:56.746Z,100728.33
2017-10-22T21:02:26.550Z,100723.73
2017-10-22T21:04:54.184Z,100726.03
2017-10-22T21:07:22.133Z,100733.16
2017-10-22T21:09:55.057Z,100736.34
2017-10-22T21:12:22.941Z,100732.87
2017-10-22T21:14:49.937Z,100733.70
2017-10-22T21:17:24.374Z,100731.58
2017-10-22T21:19:53.555Z,100738.16
2017-10-22T21:22:21.745Z,100740.05
2017-10-22T21:24:48.667Z,100741.20
2017-10-22T21:27:26.910Z,100742.52
2017-10-22T21:29:57.949Z,100742.61
2017-10-22T21:32:27.976Z,100743.02
2017-10-22T21:34:54.843Z,100751.23
2017-10-22T21:37:27.905Z,100745.42
2017-10-22T21:39:54.804Z,100751.00
2017-10-22T21:42:22.902Z,100744.73
2017-10-22T21:44:50.383Z,100750.42
2017-10-22T21:47:22.704Z,100748.33
2017-10-22T21:49:49.687Z,100744.59
2017-10-22T21:52:16.665Z,100749.41
2017-10-22T21:54:48.874Z,100753.21
2017-10-22T21:57:16.945Z,100755.19
2017-10-22T21:59:44.410Z,100753.04
2017-10-22T22:02:12.264Z,100748.47
2017-10-22T22:04:39.221Z,100758.58
2017-10-22T22:07:06.262Z,100755.63
2017-10-22T22:09:33.132Z,100756.61
2017-10-22T22:12:00.189Z,100758.81
2017-10-22T22:14:32.721Z,100757.32
2017-10-22T22:16:59.873Z,100763.92
2017-10-22T22:19:27.123Z,100762.72
2017-10-22T22:21:54.310Z,100762.09
2017-10-22T22:24:25.363Z,100763.53
2017-10-22T22:26:53.809Z,100758.13
2017-10-22T22:29:21.311Z,100763.56
2017-10-22T22:31:51.237Z,100761.61
2017-10-22T22:34:23.216Z,100760.17
2017-10-22T22:36:52.463Z,100760.92
2017-10-22T22:39:22.482Z,100758.93
2017-10-22T22:41:59.532Z,100759.55
2017-10-22T22:44:37.660Z,100759.36
2017-10-22T23:00:14.943Z,100769.38
2017-10-22T23:02:43.908Z,100766.11
2017-10-22T23:05:10.905Z,100762.98
2017-10-22T23:07:43.054Z,100759.36
2017-10-22T23:10:10.003Z,100758.78
2017-10-22T23:12:38.363Z,100765.52
2017-10-22T23:15:06.377Z,100761.63
2017-10-22T23:17:33.370Z,100760.27
2017-10-22T23:20:00.362Z,100761.43
2017-10-22T23:22:28.023Z,100760.79
2017-10-22T23:24:55.345Z,100761.63
2017-10-22T23:27:28.020Z,100762.06
2017-10-22T23:29:55.651Z,100764.66
2017-10-22T23:32:22.554Z,100768.95
2017-10-22T23:34:50.133Z,100769.61
2017-10-22T23:37:18.153Z,100764.59
2017-10-22T23:39:50.308Z,100764.24
2017-10-22T23:42:17.142Z,100776.48
2017-10-22T23:44:45.418Z,100774.06
2017-10-22T23:47:12.433Z,100770.08
2017-10-22T23:49:43.063Z,100765.87
2017-10-22T23:52:10.076Z,100772.68
2017-10-22T23:54:44.451Z,100768.11
2017-10-22T23:57:11.513Z,100772.20
2017-10-22T23:59:38.405Z,100772.36
